sensor_id;sensor_type;location;lat;lon;timestamp;temperature;humidity
13446;DHT22;6795;51.232;3.764;2022-11-20T00:01:34;4.20;99.90
13446;DHT22;6795;51.232;3.764;2022-11-20T00:04:02;4.10;99.90
13446;DHT22;6795;51.232;3.764;2022-11-20T00:06:31;4.10;99.90
13446;DHT22;6795;51.232;3.764;2022-11-20T00:09:00;4.10;99.90
13446;DHT22;6795;51.232;3.764;2022-11-20T00:11:30;4.10;99.90
13446;DHT22;6795;51.232;3.764;2022-11-20T00:14:00;4.10;99.90
13446;DHT22;6795;51.232;3.764;2022-11-20T00:16:31;4.10;99.90
13446;DHT22;6795;51.232;3.764;2022-11-20T00:19:01;4.00;99.90
13446;DHT22;6795;51.232;3.764;2022-11-20T00:21:30;4.00;99.90
13446;DHT22;6795;51.232;3.764;2022-11-20T00:23:59;4.00;99.90
13446;DHT22;6795;51.232;3.764;2022-11-20T00:26:28;4.00;99.90
13446;DHT22;6795;51.232;3.764;2022-11-20T00:29:00;4.00;99.90
13446;DHT22;6795;51.232;3.764;2022-11-20T00:31:29;4.00;99.90
13446;DHT22;6795;51.232;3.764;2022-11-20T00:34:01;4.00;99.90
13446;DHT22;6795;51.232;3.764;2022-11-20T00:36:33;4.00;99.90
13446;DHT22;6795;51.232;3.764;2022-11-20T00:39:02;4.10;99.90
13446;DHT22;6795;51.232;3.764;2022-11-20T00:41:30;4.00;99.90
13446;DHT22;6795;51.232;3.764;2022-11-20T00:43:58;4.00;99.90
13446;DHT22;6795;51.232;3.764;2022-11-20T00:46:28;4.00;99.90
13446;DHT22;6795;51.232;3.764;2022-11-20T00:48:57;4.10;99.90
13446;DHT22;6795;51.232;3.764;2022-11-20T00:51:27;4.00;99.90
13446;DHT22;6795;51.232;3.764;2022-11-20T00:53:57;4.00;99.90
13446;DHT22;6795;51.232;3.764;2022-11-20T00:56:28;4.10;99.90
13446;DHT22;6795;51.232;3.764;2022-11-20T00:58:59;4.10;99.90
13446;DHT22;6795;51.232;3.764;2022-11-20T01:01:28;4.10;99.90
13446;DHT22;6795;51.232;3.764;2022-11-20T01:03:58;4.10;99.90
13446;DHT22;6795;51.232;3.764;2022-11-20T01:06:33;4.20;99.90
13446;DHT22;6795;51.232;3.764;2022-11-20T01:09:06;4.20;99.90
13446;DHT22;6795;51.232;3.764;2022-11-20T01:11:36;4.20;99.90
13446;DHT22;6795;51.232;3.764;2022-11-20T01:14:07;4.30;99.90
13446;DHT22;6795;51.232;3.764;2022-11-20T01:16:38;4.20;99.90
13446;DHT22;6795;51.232;3.764;2022-11-20T01:19:09;4.20;99.90
13446;DHT22;6795;51.232;3.764;2022-11-20T01:21:48;4.30;99.90
13446;DHT22;6795;51.232;3.764;2022-11-20T01:24:18;4.30;99.90
13446;DHT22;6795;51.232;3.764;2022-11-20T01:26:48;4.30;99.90
13446;DHT22;6795;51.232;3.764;2022-11-20T01:29:19;4.30;99.90
13446;DHT22;6795;51.232;3.764;2022-11-20T01:31:48;4.30;99.90
13446;DHT22;6795;51.232;3.764;2022-11-20T01:34:18;4.30;99.90
13446;DHT22;6795;51.232;3.764;2022-11-20T01:36:49;4.30;99.90
13446;DHT22;6795;51.232;3.764;2022-11-20T01:39:19;4.30;99.90
13446;DHT22;6795;51.232;3.764;2022-11-20T01:41:49;4.30;99.90
13446;DHT22;6795;51.232;3.764;2022-11-20T01:44:50;4.20;99.90
13446;DHT22;6795;51.232;3.764;2022-11-20T01:47:23;4.10;99.90
13446;DHT22;6795;51.232;3.764;2022-11-20T01:49:59;4.10;99.90
13446;DHT22;6795;51.232;3.764;2022-11-20T01:52:34;4.10;99.90
13446;DHT22;6795;51.232;3.764;2022-11-20T01:55:07;4.10;99.90
13446;DHT22;6795;51.232;3.764;2022-11-20T01:57:37;4.10;99.90
13446;DHT22;6795;51.232;3.764;2022-11-20T02:00:09;4.10;99.90
13446;DHT22;6795;51.232;3.764;2022-11-20T02:02:39;4.10;99.90
13446;DHT22;6795;51.232;3.764;2022-11-20T02:05:15;4.00;99.90
13446;DHT22;6795;51.232;3.764;2022-11-20T02:07:46;3.90;99.90
13446;DHT22;6795;51.232;3.764;2022-11-20T02:10:15;3.80;99.90
13446;DHT22;6795;51.232;3.764;2022-11-20T02:12:44;3.60;99.90
13446;DHT22;6795;51.232;3.764;2022-11-20T02:15:31;3.50;99.90
13446;DHT22;6795;51.232;3.764;2022-11-20T02:18:00;3.30;99.90
13446;DHT22;6795;51.232;3.764;2022-11-20T02:20:29;3.20;99.90
13446;DHT22;6795;51.232;3.764;2022-11-20T02:23:03;3.20;99.90
13446;DHT22;6795;51.232;3.764;2022-11-20T02:25:37;3.10;99.90
13446;DHT22;6795;51.232;3.764;2022-11-20T02:28:06;3.10;99.90
13446;DHT22;6795;51.232;3.764;2022-11-20T02:30:34;3.20;99.90
13446;DHT22;6795;51.232;3.764;2022-11-20T02:33:02;3.20;99.90
13446;DHT22;6795;51.232;3.764;2022-11-20T02:35:43;3.20;99.90
13446;DHT22;6795;51.232;3.764;2022-11-20T02:38:11;3.20;99.90
13446;DHT22;6795;51.232;3.764;2022-11-20T02:40:43;3.30;99.90
13446;DHT22;6795;51.232;3.764;2022-11-20T02:43:11;3.30;99.90
13446;DHT22;6795;51.232;3.764;2022-11-20T02:45:39;3.10;99.90
13446;DHT22;6795;51.232;3.764;2022-11-20T02:48:08;3.00;99.90
13446;DHT22;6795;51.232;3.764;2022-11-20T02:50:37;2.80;99.90
13446;DHT22;6795;51.232;3.764;2022-11-20T02:53:06;2.70;99.90
13446;DHT22;6795;51.232;3.764;2022-11-20T02:55:35;2.80;99.90
13446;DHT22;6795;51.232;3.764;2022-11-20T02:58:05;2.70;99.90
13446;DHT22;6795;51.232;3.764;2022-11-20T03:00:33;2.50;99.90
13446;DHT22;6795;51.232;3.764;2022-11-20T03:03:05;2.50;99.90
13446;DHT22;6795;51.232;3.764;2022-11-20T03:05:34;2.50;99.90
13446;DHT22;6795;51.232;3.764;2022-11-20T03:08:02;2.60;99.90
13446;DHT22;6795;51.232;3.764;2022-11-20T03:10:30;2.70;99.90
13446;DHT22;6795;51.232;3.764;2022-11-20T03:12:59;2.70;99.90
13446;DHT22;6795;51.232;3.764;2022-11-20T03:15:28;2.70;99.90
13446;DHT22;6795;51.232;3.764;2022-11-20T03:17:57;2.70;99.90
13446;DHT22;6795;51.232;3.764;2022-11-20T03:20:25;2.70;99.90
13446;DHT22;6795;51.232;3.764;2022-11-20T03:22:54;2.80;99.90
13446;DHT22;6795;51.232;3.764;2022-11-20T03:25:23;2.80;99.90
13446;DHT22;6795;51.232;3.764;2022-11-20T03:27:51;2.70;99.90
13446;DHT22;6795;51.232;3.764;2022-11-20T03:30:19;3.00;99.90
13446;DHT22;6795;51.232;3.764;2022-11-20T03:32:56;3.10;99.90
13446;DHT22;6795;51.232;3.764;2022-11-20T03:35:25;3.20;99.90
13446;DHT22;6795;51.232;3.764;2022-11-20T03:37:53;3.30;99.90
13446;DHT22;6795;51.232;3.764;2022-11-20T03:40:21;3.30;99.90
13446;DHT22;6795;51.232;3.764;2022-11-20T03:42:50;3.40;99.90
13446;DHT22;6795;51.232;3.764;2022-11-20T03:45:21;3.40;99.90
13446;DHT22;6795;51.232;3.764;2022-11-20T03:47:49;3.40;99.90
13446;DHT22;6795;51.232;3.764;2022-11-20T03:50:22;3.50;99.90
13446;DHT22;6795;51.232;3.764;2022-11-20T03:52:50;3.50;99.90
13446;DHT22;6795;51.232;3.764;2022-11-20T03:55:18;3.60;99.90
13446;DHT22;6795;51.232;3.764;2022-11-20T03:57:47;3.60;99.90
13446;DHT22;6795;51.232;3.764;2022-11-20T04:00:15;3.70;99.90
13446;DHT22;6795;51.232;3.764;2022-11-20T04:02:44;3.70;99.90
13446;DHT22;6795;51.232;3.764;2022-11-20T04:05:12;3.80;99.90
13446;DHT22;6795;51.232;3.764;2022-11-20T04:07:42;3.80;99.90
13446;DHT22;6795;51.232;3.764;2022-11-20T04:10:13;3.90;99.90
13446;DHT22;6795;51.232;3.764;2022-11-20T04:12:44;3.90;99.90
13446;DHT22;6795;51.232;3.764;2022-11-20T04:15:13;3.90;99.90
13446;DHT22;6795;51.232;3.764;2022-11-20T04:17:41;3.90;99.90
13446;DHT22;6795;51.232;3.764;2022-11-20T04:20:10;3.90;99.90
13446;DHT22;6795;51.232;3.764;2022-11-20T04:22:39;4.00;99.90
13446;DHT22;6795;51.232;3.764;2022-11-20T04:25:09;4.00;99.90
13446;DHT22;6795;51.232;3.764;2022-11-20T04:27:39;4.10;99.90
13446;DHT22;6795;51.232;3.764;2022-11-20T04:30:08;4.10;99.90
13446;DHT22;6795;51.232;3.764;2022-11-20T04:32:36;4.10;99.90
13446;DHT22;6795;51.232;3.764;2022-11-20T04:35:05;4.20;99.90
13446;DHT22;6795;51.232;3.764;2022-11-20T04:37:33;4.20;99.90
13446;DHT22;6795;51.232;3.764;2022-11-20T04:40:05;4.20;99.90
13446;DHT22;6795;51.232;3.764;2022-11-20T04:42:35;4.20;99.90
13446;DHT22;6795;51.232;3.764;2022-11-20T04:45:04;4.20;99.90
13446;DHT22;6795;51.232;3.764;2022-11-20T04:47:32;4.20;99.90
13446;DHT22;6795;51.232;3.764;2022-11-20T04:50:04;4.10;99.90
13446;DHT22;6795;51.232;3.764;2022-11-20T04:52:32;4.10;99.90
13446;DHT22;6795;51.232;3.764;2022-11-20T04:55:01;4.00;99.90
13446;DHT22;6795;51.232;3.764;2022-11-20T04:57:29;4.00;99.90
13446;DHT22;6795;51.232;3.764;2022-11-20T04:59:59;3.90;99.90
13446;DHT22;6795;51.232;3.764;2022-11-20T05:02:27;4.00;99.90
13446;DHT22;6795;51.232;3.764;2022-11-20T05:04:56;4.00;99.90
13446;DHT22;6795;51.232;3.764;2022-11-20T05:07:24;3.90;99.90
13446;DHT22;6795;51.232;3.764;2022-11-20T05:09:55;3.80;99.90
13446;DHT22;6795;51.232;3.764;2022-11-20T05:12:24;3.80;99.90
13446;DHT22;6795;51.232;3.764;2022-11-20T05:14:52;3.80;99.90
13446;DHT22;6795;51.232;3.764;2022-11-20T05:17:22;3.70;99.90
13446;DHT22;6795;51.232;3.764;2022-11-20T05:19:50;3.70;99.90
13446;DHT22;6795;51.232;3.764;2022-11-20T05:22:19;3.70;99.90
13446;DHT22;6795;51.232;3.764;2022-11-20T05:24:48;3.70;99.90
13446;DHT22;6795;51.232;3.764;2022-11-20T05:27:17;3.70;99.90
13446;DHT22;6795;51.232;3.764;2022-11-20T05:29:45;3.70;99.90
13446;DHT22;6795;51.232;3.764;2022-11-20T05:32:13;3.80;99.90
13446;DHT22;6795;51.232;3.764;2022-11-20T05:34:43;3.90;99.90
13446;DHT22;6795;51.232;3.764;2022-11-20T05:37:11;3.90;99.90
13446;DHT22;6795;51.232;3.764;2022-11-20T05:39:40;4.00;99.90
13446;DHT22;6795;51.232;3.764;2022-11-20T05:42:08;4.10;99.90
13446;DHT22;6795;51.232;3.764;2022-11-20T05:44:54;4.10;99.90
13446;DHT22;6795;51.232;3.764;2022-11-20T05:47:22;4.10;99.90
13446;DHT22;6795;51.232;3.764;2022-11-20T05:49:52;4.10;99.90
13446;DHT22;6795;51.232;3.764;2022-11-20T05:52:21;4.10;99.90
13446;DHT22;6795;51.232;3.764;2022-11-20T05:54:49;4.20;99.90
13446;DHT22;6795;51.232;3.764;2022-11-20T05:57:20;4.20;99.90
13446;DHT22;6795;51.232;3.764;2022-11-20T05:59:49;4.20;99.90
13446;DHT22;6795;51.232;3.764;2022-11-20T06:02:17;4.30;99.90
13446;DHT22;6795;51.232;3.764;2022-11-20T06:04:46;4.30;99.90
13446;DHT22;6795;51.232;3.764;2022-11-20T06:07:15;4.40;99.90
13446;DHT22;6795;51.232;3.764;2022-11-20T06:09:44;4.40;99.90
13446;DHT22;6795;51.232;3.764;2022-11-20T06:12:15;4.40;99.90
13446;DHT22;6795;51.232;3.764;2022-11-20T06:14:43;4.50;99.90
13446;DHT22;6795;51.232;3.764;2022-11-20T06:17:11;4.50;99.90
13446;DHT22;6795;51.232;3.764;2022-11-20T06:19:40;4.60;99.90
13446;DHT22;6795;51.232;3.764;2022-11-20T06:22:08;4.60;99.90
13446;DHT22;6795;51.232;3.764;2022-11-20T06:24:37;4.60;99.90
13446;DHT22;6795;51.232;3.764;2022-11-20T06:27:06;4.70;99.90
13446;DHT22;6795;51.232;3.764;2022-11-20T06:29:35;4.70;99.90
13446;DHT22;6795;51.232;3.764;2022-11-20T06:32:04;4.70;99.90
13446;DHT22;6795;51.232;3.764;2022-11-20T06:37:40;4.80;99.90
13446;DHT22;6795;51.232;3.764;2022-11-20T06:40:11;4.80;99.90
13446;DHT22;6795;51.232;3.764;2022-11-20T06:42:40;4.80;99.90
13446;DHT22;6795;51.232;3.764;2022-11-20T06:45:09;4.80;99.90
13446;DHT22;6795;51.232;3.764;2022-11-20T06:47:40;4.90;99.90
13446;DHT22;6795;51.232;3.764;2022-11-20T06:50:09;5.00;99.90
13446;DHT22;6795;51.232;3.764;2022-11-20T06:52:40;5.00;99.90
13446;DHT22;6795;51.232;3.764;2022-11-20T06:55:11;5.00;99.90
13446;DHT22;6795;51.232;3.764;2022-11-20T06:57:39;5.00;99.90
13446;DHT22;6795;51.232;3.764;2022-11-20T07:00:08;5.10;99.90
13446;DHT22;6795;51.232;3.764;2022-11-20T07:02:37;5.10;99.90
13446;DHT22;6795;51.232;3.764;2022-11-20T07:05:06;5.20;99.90
13446;DHT22;6795;51.232;3.764;2022-11-20T07:07:34;5.30;99.90
13446;DHT22;6795;51.232;3.764;2022-11-20T07:10:03;5.30;99.90
13446;DHT22;6795;51.232;3.764;2022-11-20T07:12:33;5.30;99.90
13446;DHT22;6795;51.232;3.764;2022-11-20T07:15:01;5.30;99.90
13446;DHT22;6795;51.232;3.764;2022-11-20T07:17:30;5.40;99.90
13446;DHT22;6795;51.232;3.764;2022-11-20T07:19:58;5.40;99.90
13446;DHT22;6795;51.232;3.764;2022-11-20T07:22:26;5.40;99.90
13446;DHT22;6795;51.232;3.764;2022-11-20T07:24:55;5.50;99.90
13446;DHT22;6795;51.232;3.764;2022-11-20T07:27:23;5.50;99.90
13446;DHT22;6795;51.232;3.764;2022-11-20T07:29:53;5.50;99.90
13446;DHT22;6795;51.232;3.764;2022-11-20T07:32:22;5.50;99.90
13446;DHT22;6795;51.232;3.764;2022-11-20T07:34:50;5.50;99.90
13446;DHT22;6795;51.232;3.764;2022-11-20T07:37:19;5.50;99.90
13446;DHT22;6795;51.232;3.764;2022-11-20T07:39:47;5.50;99.90
13446;DHT22;6795;51.232;3.764;2022-11-20T07:42:15;5.50;99.90
13446;DHT22;6795;51.232;3.764;2022-11-20T07:44:44;5.50;99.90
13446;DHT22;6795;51.232;3.764;2022-11-20T07:47:13;5.50;99.90
13446;DHT22;6795;51.232;3.764;2022-11-20T07:49:42;5.50;99.90
13446;DHT22;6795;51.232;3.764;2022-11-20T07:52:10;5.40;99.90
13446;DHT22;6795;51.232;3.764;2022-11-20T07:54:38;5.50;99.90
13446;DHT22;6795;51.232;3.764;2022-11-20T07:57:07;5.40;99.90
13446;DHT22;6795;51.232;3.764;2022-11-20T07:59:35;5.50;99.90
13446;DHT22;6795;51.232;3.764;2022-11-20T08:02:03;5.50;99.90
13446;DHT22;6795;51.232;3.764;2022-11-20T08:04:33;5.60;99.90
13446;DHT22;6795;51.232;3.764;2022-11-20T08:07:01;5.60;99.90
13446;DHT22;6795;51.232;3.764;2022-11-20T08:09:30;5.60;99.90
13446;DHT22;6795;51.232;3.764;2022-11-20T08:11:59;5.70;99.90
13446;DHT22;6795;51.232;3.764;2022-11-20T08:14:45;5.80;99.90
13446;DHT22;6795;51.232;3.764;2022-11-20T08:17:13;5.80;99.90
13446;DHT22;6795;51.232;3.764;2022-11-20T08:19:43;5.90;99.90
13446;DHT22;6795;51.232;3.764;2022-11-20T08:22:11;5.90;99.90
13446;DHT22;6795;51.232;3.764;2022-11-20T08:24:40;5.80;99.90
13446;DHT22;6795;51.232;3.764;2022-11-20T08:27:08;5.90;99.90
13446;DHT22;6795;51.232;3.764;2022-11-20T08:29:37;5.90;99.90
13446;DHT22;6795;51.232;3.764;2022-11-20T08:32:05;5.90;99.90
13446;DHT22;6795;51.232;3.764;2022-11-20T08:34:33;5.90;99.90
13446;DHT22;6795;51.232;3.764;2022-11-20T08:37:03;5.90;99.90
13446;DHT22;6795;51.232;3.764;2022-11-20T08:39:34;6.00;99.90
13446;DHT22;6795;51.232;3.764;2022-11-20T08:42:06;6.10;99.90
13446;DHT22;6795;51.232;3.764;2022-11-20T08:44:34;6.20;99.90
13446;DHT22;6795;51.232;3.764;2022-11-20T08:47:05;6.20;99.90
13446;DHT22;6795;51.232;3.764;2022-11-20T08:49:33;6.20;99.90
13446;DHT22;6795;51.232;3.764;2022-11-20T08:52:03;6.20;99.90
13446;DHT22;6795;51.232;3.764;2022-11-20T08:54:32;6.30;99.90
13446;DHT22;6795;51.232;3.764;2022-11-20T08:57:00;6.20;99.90
13446;DHT22;6795;51.232;3.764;2022-11-20T08:59:29;6.30;99.90
13446;DHT22;6795;51.232;3.764;2022-11-20T09:02:20;6.30;99.90
13446;DHT22;6795;51.232;3.764;2022-11-20T09:04:48;6.30;99.90
13446;DHT22;6795;51.232;3.764;2022-11-20T09:07:18;6.30;99.90
13446;DHT22;6795;51.232;3.764;2022-11-20T09:09:46;6.40;99.90
13446;DHT22;6795;51.232;3.764;2022-11-20T09:12:35;6.40;99.90
13446;DHT22;6795;51.232;3.764;2022-11-20T09:15:04;6.40;99.90
13446;DHT22;6795;51.232;3.764;2022-11-20T09:17:33;6.50;99.90
13446;DHT22;6795;51.232;3.764;2022-11-20T09:20:01;6.50;99.90
13446;DHT22;6795;51.232;3.764;2022-11-20T09:22:32;6.60;99.90
13446;DHT22;6795;51.232;3.764;2022-11-20T09:25:00;6.60;99.90
13446;DHT22;6795;51.232;3.764;2022-11-20T09:27:31;6.70;99.90
13446;DHT22;6795;51.232;3.764;2022-11-20T09:29:59;6.70;99.90
13446;DHT22;6795;51.232;3.764;2022-11-20T09:32:28;6.80;99.90
13446;DHT22;6795;51.232;3.764;2022-11-20T09:34:59;6.90;99.90
13446;DHT22;6795;51.232;3.764;2022-11-20T09:37:27;6.90;99.90
13446;DHT22;6795;51.232;3.764;2022-11-20T09:39:57;7.00;99.90
13446;DHT22;6795;51.232;3.764;2022-11-20T09:42:36;7.00;99.90
13446;DHT22;6795;51.232;3.764;2022-11-20T09:45:16;7.00;99.90
13446;DHT22;6795;51.232;3.764;2022-11-20T09:48:03;7.00;99.90
13446;DHT22;6795;51.232;3.764;2022-11-20T09:50:43;7.10;99.90
13446;DHT22;6795;51.232;3.764;2022-11-20T09:53:24;7.10;99.90
13446;DHT22;6795;51.232;3.764;2022-11-20T09:55:56;7.10;99.90
13446;DHT22;6795;51.232;3.764;2022-11-20T09:58:29;7.20;99.90
13446;DHT22;6795;51.232;3.764;2022-11-20T10:01:03;7.20;99.90
13446;DHT22;6795;51.232;3.764;2022-11-20T10:03:39;7.30;99.90
13446;DHT22;6795;51.232;3.764;2022-11-20T10:06:13;7.40;99.90
13446;DHT22;6795;51.232;3.764;2022-11-20T10:08:47;7.50;99.90
13446;DHT22;6795;51.232;3.764;2022-11-20T10:11:26;7.50;99.90
13446;DHT22;6795;51.232;3.764;2022-11-20T10:14:01;7.60;99.90
13446;DHT22;6795;51.232;3.764;2022-11-20T10:16:40;7.80;99.90
13446;DHT22;6795;51.232;3.764;2022-11-20T10:19:22;7.80;99.90
13446;DHT22;6795;51.232;3.764;2022-11-20T10:22:01;7.80;99.90
13446;DHT22;6795;51.232;3.764;2022-11-20T10:24:44;7.90;99.90
13446;DHT22;6795;51.232;3.764;2022-11-20T10:27:35;7.90;99.90
13446;DHT22;6795;51.232;3.764;2022-11-20T10:30:09;8.00;99.90
13446;DHT22;6795;51.232;3.764;2022-11-20T10:32:40;8.20;99.90
13446;DHT22;6795;51.232;3.764;2022-11-20T10:35:20;8.20;99.90
13446;DHT22;6795;51.232;3.764;2022-11-20T10:37:54;8.30;99.90
13446;DHT22;6795;51.232;3.764;2022-11-20T10:40:29;8.40;99.90
13446;DHT22;6795;51.232;3.764;2022-11-20T10:43:03;8.50;99.90
13446;DHT22;6795;51.232;3.764;2022-11-20T10:45:44;8.50;99.90
13446;DHT22;6795;51.232;3.764;2022-11-20T10:48:16;8.50;99.90
13446;DHT22;6795;51.232;3.764;2022-11-20T10:50:57;8.50;99.90
13446;DHT22;6795;51.232;3.764;2022-11-20T10:53:54;8.60;99.90
13446;DHT22;6795;51.232;3.764;2022-11-20T10:56:27;8.60;99.90
13446;DHT22;6795;51.232;3.764;2022-11-20T11:02:22;8.70;99.90
13446;DHT22;6795;51.232;3.764;2022-11-20T11:04:52;8.80;99.90
13446;DHT22;6795;51.232;3.764;2022-11-20T11:07:23;8.90;99.90
13446;DHT22;6795;51.232;3.764;2022-11-20T11:09:55;8.90;99.90
13446;DHT22;6795;51.232;3.764;2022-11-20T11:12:25;8.90;99.90
13446;DHT22;6795;51.232;3.764;2022-11-20T11:14:57;9.10;99.90
13446;DHT22;6795;51.232;3.764;2022-11-20T11:17:27;9.10;99.90
13446;DHT22;6795;51.232;3.764;2022-11-20T11:20:05;9.20;99.90
13446;DHT22;6795;51.232;3.764;2022-11-20T11:22:43;9.20;99.90
13446;DHT22;6795;51.232;3.764;2022-11-20T11:25:24;9.40;99.90
13446;DHT22;6795;51.232;3.764;2022-11-20T11:27:56;9.30;99.90
13446;DHT22;6795;51.232;3.764;2022-11-20T11:30:27;9.40;99.90
13446;DHT22;6795;51.232;3.764;2022-11-20T11:33:04;9.40;99.90
13446;DHT22;6795;51.232;3.764;2022-11-20T11:35:38;9.50;99.90
13446;DHT22;6795;51.232;3.764;2022-11-20T11:38:13;9.50;99.90
13446;DHT22;6795;51.232;3.764;2022-11-20T11:40:43;9.50;99.90
13446;DHT22;6795;51.232;3.764;2022-11-20T11:43:19;9.50;99.90
13446;DHT22;6795;51.232;3.764;2022-11-20T11:46:25;9.40;99.90
13446;DHT22;6795;51.232;3.764;2022-11-20T11:48:59;9.30;99.90
13446;DHT22;6795;51.232;3.764;2022-11-20T11:51:33;9.30;99.90
13446;DHT22;6795;51.232;3.764;2022-11-20T11:54:12;9.10;99.90
13446;DHT22;6795;51.232;3.764;2022-11-20T11:56:43;9.10;99.90
13446;DHT22;6795;51.232;3.764;2022-11-20T11:59:16;9.00;99.90
13446;DHT22;6795;51.232;3.764;2022-11-20T12:01:50;9.00;99.90
13446;DHT22;6795;51.232;3.764;2022-11-20T12:04:29;8.90;99.90
13446;DHT22;6795;51.232;3.764;2022-11-20T12:07:10;8.90;99.90
13446;DHT22;6795;51.232;3.764;2022-11-20T12:10:00;8.90;99.90
13446;DHT22;6795;51.232;3.764;2022-11-20T12:12:32;8.80;99.90
13446;DHT22;6795;51.232;3.764;2022-11-20T12:15:06;8.80;99.90
13446;DHT22;6795;51.232;3.764;2022-11-20T12:17:37;8.70;99.90
13446;DHT22;6795;51.232;3.764;2022-11-20T12:20:11;8.70;99.90
13446;DHT22;6795;51.232;3.764;2022-11-20T12:22:46;8.60;99.90
13446;DHT22;6795;51.232;3.764;2022-11-20T12:25:20;8.60;99.90
13446;DHT22;6795;51.232;3.764;2022-11-20T12:28:07;8.60;99.90
13446;DHT22;6795;51.232;3.764;2022-11-20T12:30:46;8.50;99.90
13446;DHT22;6795;51.232;3.764;2022-11-20T12:33:39;8.60;99.90
13446;DHT22;6795;51.232;3.764;2022-11-20T12:36:19;8.60;99.90
13446;DHT22;6795;51.232;3.764;2022-11-20T12:39:07;8.60;99.90
13446;DHT22;6795;51.232;3.764;2022-11-20T12:41:53;8.60;99.90
13446;DHT22;6795;51.232;3.764;2022-11-20T12:44:56;8.60;99.90
13446;DHT22;6795;51.232;3.764;2022-11-20T12:48:03;8.60;99.90
13446;DHT22;6795;51.232;3.764;2022-11-20T12:50:45;8.60;99.90
13446;DHT22;6795;51.232;3.764;2022-11-20T12:53:41;8.60;99.90
13446;DHT22;6795;51.232;3.764;2022-11-20T12:56:21;8.50;99.90
13446;DHT22;6795;51.232;3.764;2022-11-20T12:59:02;8.60;99.90
13446;DHT22;6795;51.232;3.764;2022-11-20T13:01:42;8.60;99.90
13446;DHT22;6795;51.232;3.764;2022-11-20T13:04:34;8.70;99.90
13446;DHT22;6795;51.232;3.764;2022-11-20T13:07:12;8.70;99.90
13446;DHT22;6795;51.232;3.764;2022-11-20T13:09:44;8.60;99.90
13446;DHT22;6795;51.232;3.764;2022-11-20T13:12:17;8.50;99.90
13446;DHT22;6795;51.232;3.764;2022-11-20T13:14:53;8.60;99.90
13446;DHT22;6795;51.232;3.764;2022-11-20T13:17:27;8.50;99.90
13446;DHT22;6795;51.232;3.764;2022-11-20T13:19:59;8.50;99.90
13446;DHT22;6795;51.232;3.764;2022-11-20T13:22:42;8.60;99.90
13446;DHT22;6795;51.232;3.764;2022-11-20T13:25:22;8.60;99.90
13446;DHT22;6795;51.232;3.764;2022-11-20T13:27:52;8.60;99.90
13446;DHT22;6795;51.232;3.764;2022-11-20T13:30:21;8.60;99.90
13446;DHT22;6795;51.232;3.764;2022-11-20T13:32:55;8.60;99.90
13446;DHT22;6795;51.232;3.764;2022-11-20T13:35:30;8.60;99.90
13446;DHT22;6795;51.232;3.764;2022-11-20T13:38:03;8.60;99.90
13446;DHT22;6795;51.232;3.764;2022-11-20T13:40:31;8.60;99.90
13446;DHT22;6795;51.232;3.764;2022-11-20T13:43:08;8.70;99.90
13446;DHT22;6795;51.232;3.764;2022-11-20T13:45:38;8.70;99.90
13446;DHT22;6795;51.232;3.764;2022-11-20T13:48:20;8.70;99.90
13446;DHT22;6795;51.232;3.764;2022-11-20T13:50:58;8.70;99.90
13446;DHT22;6795;51.232;3.764;2022-11-20T13:53:42;8.70;99.90
13446;DHT22;6795;51.232;3.764;2022-11-20T13:56:19;8.70;99.90
13446;DHT22;6795;51.232;3.764;2022-11-20T13:58:55;8.70;99.90
13446;DHT22;6795;51.232;3.764;2022-11-20T14:01:31;8.70;99.90
13446;DHT22;6795;51.232;3.764;2022-11-20T14:04:06;8.80;99.90
13446;DHT22;6795;51.232;3.764;2022-11-20T14:06:41;8.80;99.90
13446;DHT22;6795;51.232;3.764;2022-11-20T14:09:13;8.80;99.90
13446;DHT22;6795;51.232;3.764;2022-11-20T14:11:52;8.80;99.90
13446;DHT22;6795;51.232;3.764;2022-11-20T14:14:22;8.80;99.90
13446;DHT22;6795;51.232;3.764;2022-11-20T14:16:52;8.80;99.90
13446;DHT22;6795;51.232;3.764;2022-11-20T14:19:27;8.90;99.90
13446;DHT22;6795;51.232;3.764;2022-11-20T14:22:16;8.90;99.90
13446;DHT22;6795;51.232;3.764;2022-11-20T14:24:47;8.90;99.90
13446;DHT22;6795;51.232;3.764;2022-11-20T14:27:19;8.90;99.90
13446;DHT22;6795;51.232;3.764;2022-11-20T14:29:49;9.00;99.90
13446;DHT22;6795;51.232;3.764;2022-11-20T14:32:25;9.00;99.90
13446;DHT22;6795;51.232;3.764;2022-11-20T14:35:01;9.10;99.90
13446;DHT22;6795;51.232;3.764;2022-11-20T14:37:33;9.10;99.90
13446;DHT22;6795;51.232;3.764;2022-11-20T14:40:25;9.20;99.90
13446;DHT22;6795;51.232;3.764;2022-11-20T14:42:54;9.30;99.90
13446;DHT22;6795;51.232;3.764;2022-11-20T14:45:23;9.30;99.90
13446;DHT22;6795;51.232;3.764;2022-11-20T14:47:52;9.30;99.90
13446;DHT22;6795;51.232;3.764;2022-11-20T14:50:23;9.30;99.90
13446;DHT22;6795;51.232;3.764;2022-11-20T14:52:54;9.50;99.90
13446;DHT22;6795;51.232;3.764;2022-11-20T14:55:29;9.50;99.90
13446;DHT22;6795;51.232;3.764;2022-11-20T14:57:59;9.50;99.90
13446;DHT22;6795;51.232;3.764;2022-11-20T15:00:28;9.70;99.90
13446;DHT22;6795;51.232;3.764;2022-11-20T15:02:57;9.60;99.90
13446;DHT22;6795;51.232;3.764;2022-11-20T15:05:44;9.60;99.90
13446;DHT22;6795;51.232;3.764;2022-11-20T15:08:13;9.60;99.90
13446;DHT22;6795;51.232;3.764;2022-11-20T15:10:47;9.60;99.90
13446;DHT22;6795;51.232;3.764;2022-11-20T15:13:19;9.60;99.90
13446;DHT22;6795;51.232;3.764;2022-11-20T15:15:54;9.60;99.90
13446;DHT22;6795;51.232;3.764;2022-11-20T15:18:24;9.50;99.90
13446;DHT22;6795;51.232;3.764;2022-11-20T15:20:56;9.50;99.90
13446;DHT22;6795;51.232;3.764;2022-11-20T15:23:26;9.40;99.90
13446;DHT22;6795;51.232;3.764;2022-11-20T15:25:56;9.50;99.90
13446;DHT22;6795;51.232;3.764;2022-11-20T15:28:29;9.50;99.90
13446;DHT22;6795;51.232;3.764;2022-11-20T15:30:58;9.50;99.90
13446;DHT22;6795;51.232;3.764;2022-11-20T15:33:26;9.40;99.90
13446;DHT22;6795;51.232;3.764;2022-11-20T15:35:55;9.40;99.90
13446;DHT22;6795;51.232;3.764;2022-11-20T15:38:23;9.30;99.90
13446;DHT22;6795;51.232;3.764;2022-11-20T15:40:51;9.30;99.90
13446;DHT22;6795;51.232;3.764;2022-11-20T15:43:21;9.40;99.90
13446;DHT22;6795;51.232;3.764;2022-11-20T15:45:55;9.40;99.90
13446;DHT22;6795;51.232;3.764;2022-11-20T15:48:26;9.40;99.90
13446;DHT22;6795;51.232;3.764;2022-11-20T15:50:58;9.30;99.90
13446;DHT22;6795;51.232;3.764;2022-11-20T15:53:26;9.30;99.90
13446;DHT22;6795;51.232;3.764;2022-11-20T15:55:55;9.30;99.90
13446;DHT22;6795;51.232;3.764;2022-11-20T15:58:25;9.20;99.90
13446;DHT22;6795;51.232;3.764;2022-11-20T16:00:54;9.10;99.90
13446;DHT22;6795;51.232;3.764;2022-11-20T16:03:22;9.10;99.90
13446;DHT22;6795;51.232;3.764;2022-11-20T16:05:50;9.20;99.90
13446;DHT22;6795;51.232;3.764;2022-11-20T16:08:19;9.20;99.90
13446;DHT22;6795;51.232;3.764;2022-11-20T16:10:47;9.10;99.90
13446;DHT22;6795;51.232;3.764;2022-11-20T16:13:16;9.00;99.90
13446;DHT22;6795;51.232;3.764;2022-11-20T16:16:05;9.00;99.90
13446;DHT22;6795;51.232;3.764;2022-11-20T16:18:36;8.80;99.90
13446;DHT22;6795;51.232;3.764;2022-11-20T16:21:04;8.80;99.90
13446;DHT22;6795;51.232;3.764;2022-11-20T16:23:32;8.70;99.90
13446;DHT22;6795;51.232;3.764;2022-11-20T16:26:09;8.70;99.90
13446;DHT22;6795;51.232;3.764;2022-11-20T16:28:40;8.70;99.90
13446;DHT22;6795;51.232;3.764;2022-11-20T16:31:11;8.70;99.90
13446;DHT22;6795;51.232;3.764;2022-11-20T16:33:41;8.70;99.90
13446;DHT22;6795;51.232;3.764;2022-11-20T16:36:10;8.80;99.90
13446;DHT22;6795;51.232;3.764;2022-11-20T16:38:39;8.90;99.90
13446;DHT22;6795;51.232;3.764;2022-11-20T16:41:08;9.00;99.90